sensor_id;sensor_type;location;lat;lon;timestamp;temperature;humidity
79065;DHT22;68469;51.502;7.462;2023-11-21T00:02:12;8.60;99.90
79065;DHT22;68469;51.502;7.462;2023-11-21T00:04:38;8.60;99.90
79065;DHT22;68469;51.502;7.462;2023-11-21T00:07:03;8.60;99.90
79065;DHT22;68469;51.502;7.462;2023-11-21T00:09:31;8.60;99.90
79065;DHT22;68469;51.502;7.462;2023-11-21T00:11:57;8.60;99.90
79065;DHT22;68469;51.502;7.462;2023-11-21T00:14:22;8.60;99.90
79065;DHT22;68469;51.502;7.462;2023-11-21T00:16:48;8.60;99.90
79065;DHT22;68469;51.502;7.462;2023-11-21T00:19:14;8.60;99.90
79065;DHT22;68469;51.502;7.462;2023-11-21T00:21:39;8.60;99.90
79065;DHT22;68469;51.502;7.462;2023-11-21T00:24:05;8.60;99.90
79065;DHT22;68469;51.502;7.462;2023-11-21T00:26:31;8.70;99.90
79065;DHT22;68469;51.502;7.462;2023-11-21T00:29:01;8.70;99.90
79065;DHT22;68469;51.502;7.462;2023-11-21T00:31:27;8.70;99.90
79065;DHT22;68469;51.502;7.462;2023-11-21T00:33:53;8.60;99.90
79065;DHT22;68469;51.502;7.462;2023-11-21T00:36:20;8.70;99.90
79065;DHT22;68469;51.502;7.462;2023-11-21T00:38:46;8.70;99.90
79065;DHT22;68469;51.502;7.462;2023-11-21T00:41:13;8.70;99.90
79065;DHT22;68469;51.502;7.462;2023-11-21T00:43:39;8.70;99.90
79065;DHT22;68469;51.502;7.462;2023-11-21T00:46:05;8.70;99.90
79065;DHT22;68469;51.502;7.462;2023-11-21T00:48:33;8.70;99.90
79065;DHT22;68469;51.502;7.462;2023-11-21T00:50:59;8.70;99.90
79065;DHT22;68469;51.502;7.462;2023-11-21T00:53:24;8.70;99.90
79065;DHT22;68469;51.502;7.462;2023-11-21T00:55:50;8.60;99.90
79065;DHT22;68469;51.502;7.462;2023-11-21T00:58:17;8.70;99.90
79065;DHT22;68469;51.502;7.462;2023-11-21T01:00:43;8.70;99.90
79065;DHT22;68469;51.502;7.462;2023-11-21T01:03:09;8.70;99.90
79065;DHT22;68469;51.502;7.462;2023-11-21T01:05:35;8.60;99.90
79065;DHT22;68469;51.502;7.462;2023-11-21T01:08:00;8.60;99.90
79065;DHT22;68469;51.502;7.462;2023-11-21T01:10:26;8.60;99.90
79065;DHT22;68469;51.502;7.462;2023-11-21T01:12:51;8.60;99.90
79065;DHT22;68469;51.502;7.462;2023-11-21T01:15:17;8.60;99.90
79065;DHT22;68469;51.502;7.462;2023-11-21T01:17:42;8.60;99.90
79065;DHT22;68469;51.502;7.462;2023-11-21T01:20:09;8.60;99.90
79065;DHT22;68469;51.502;7.462;2023-11-21T01:22:38;8.60;99.90
79065;DHT22;68469;51.502;7.462;2023-11-21T01:25:04;8.60;99.90
79065;DHT22;68469;51.502;7.462;2023-11-21T01:27:33;8.50;99.90
79065;DHT22;68469;51.502;7.462;2023-11-21T01:29:59;8.60;99.90
79065;DHT22;68469;51.502;7.462;2023-11-21T01:32:25;8.60;99.90
79065;DHT22;68469;51.502;7.462;2023-11-21T01:34:51;8.60;99.90
79065;DHT22;68469;51.502;7.462;2023-11-21T01:37:16;8.60;99.90
79065;DHT22;68469;51.502;7.462;2023-11-21T01:39:43;8.60;99.90
79065;DHT22;68469;51.502;7.462;2023-11-21T01:42:09;8.60;99.90
79065;DHT22;68469;51.502;7.462;2023-11-21T01:44:35;8.60;99.90
79065;DHT22;68469;51.502;7.462;2023-11-21T01:47:01;8.60;99.90
79065;DHT22;68469;51.502;7.462;2023-11-21T01:49:31;8.60;99.90
79065;DHT22;68469;51.502;7.462;2023-11-21T01:51:58;8.60;99.90
79065;DHT22;68469;51.502;7.462;2023-11-21T01:54:25;8.60;99.90
79065;DHT22;68469;51.502;7.462;2023-11-21T01:56:51;8.60;99.90
79065;DHT22;68469;51.502;7.462;2023-11-21T01:59:21;8.60;99.90
79065;DHT22;68469;51.502;7.462;2023-11-21T02:01:49;8.60;99.90
79065;DHT22;68469;51.502;7.462;2023-11-21T02:04:15;8.50;99.90
79065;DHT22;68469;51.502;7.462;2023-11-21T02:06:41;8.50;99.90
79065;DHT22;68469;51.502;7.462;2023-11-21T02:09:07;8.50;99.90
79065;DHT22;68469;51.502;7.462;2023-11-21T02:11:34;8.50;99.90
79065;DHT22;68469;51.502;7.462;2023-11-21T02:14:00;8.50;99.90
79065;DHT22;68469;51.502;7.462;2023-11-21T02:16:26;8.50;99.90
79065;DHT22;68469;51.502;7.462;2023-11-21T02:18:53;8.40;99.90
79065;DHT22;68469;51.502;7.462;2023-11-21T02:21:18;8.40;99.90
79065;DHT22;68469;51.502;7.462;2023-11-21T02:23:44;8.40;99.90
79065;DHT22;68469;51.502;7.462;2023-11-21T02:26:12;8.30;99.90
79065;DHT22;68469;51.502;7.462;2023-11-21T02:28:38;8.30;99.90
79065;DHT22;68469;51.502;7.462;2023-11-21T02:31:04;8.30;99.90
79065;DHT22;68469;51.502;7.462;2023-11-21T02:33:30;8.30;99.90
79065;DHT22;68469;51.502;7.462;2023-11-21T02:35:59;8.20;99.90
79065;DHT22;68469;51.502;7.462;2023-11-21T02:38:25;8.20;99.90
79065;DHT22;68469;51.502;7.462;2023-11-21T02:40:51;8.30;99.90
79065;DHT22;68469;51.502;7.462;2023-11-21T02:43:17;8.30;99.90
79065;DHT22;68469;51.502;7.462;2023-11-21T02:45:42;8.30;99.90
79065;DHT22;68469;51.502;7.462;2023-11-21T02:48:08;8.30;99.90
79065;DHT22;68469;51.502;7.462;2023-11-21T02:50:34;8.30;99.90
79065;DHT22;68469;51.502;7.462;2023-11-21T02:53:00;8.30;99.90
79065;DHT22;68469;51.502;7.462;2023-11-21T02:55:27;8.30;99.90
79065;DHT22;68469;51.502;7.462;2023-11-21T02:57:53;8.30;99.90
79065;DHT22;68469;51.502;7.462;2023-11-21T03:00:21;8.30;99.90
79065;DHT22;68469;51.502;7.462;2023-11-21T03:02:49;8.30;99.90
79065;DHT22;68469;51.502;7.462;2023-11-21T03:05:15;8.30;99.90
79065;DHT22;68469;51.502;7.462;2023-11-21T03:07:40;8.40;99.90
79065;DHT22;68469;51.502;7.462;2023-11-21T03:10:09;8.40;99.90
79065;DHT22;68469;51.502;7.462;2023-11-21T03:12:36;8.40;99.90
79065;DHT22;68469;51.502;7.462;2023-11-21T03:15:02;8.40;99.90
79065;DHT22;68469;51.502;7.462;2023-11-21T03:17:28;8.40;99.90
79065;DHT22;68469;51.502;7.462;2023-11-21T03:19:54;8.40;99.90
79065;DHT22;68469;51.502;7.462;2023-11-21T03:22:20;8.40;99.90
79065;DHT22;68469;51.502;7.462;2023-11-21T03:24:45;8.40;99.90
79065;DHT22;68469;51.502;7.462;2023-11-21T03:27:11;8.40;99.90
79065;DHT22;68469;51.502;7.462;2023-11-21T03:29:37;8.40;99.90
79065;DHT22;68469;51.502;7.462;2023-11-21T03:32:03;8.40;99.90
79065;DHT22;68469;51.502;7.462;2023-11-21T03:34:29;8.40;99.90
79065;DHT22;68469;51.502;7.462;2023-11-21T03:36:55;8.40;99.90
79065;DHT22;68469;51.502;7.462;2023-11-21T03:39:21;8.40;99.90
79065;DHT22;68469;51.502;7.462;2023-11-21T03:41:47;8.40;99.90
79065;DHT22;68469;51.502;7.462;2023-11-21T03:44:14;8.40;99.90
79065;DHT22;68469;51.502;7.462;2023-11-21T03:46:39;8.40;99.90
79065;DHT22;68469;51.502;7.462;2023-11-21T03:49:05;8.50;99.90
79065;DHT22;68469;51.502;7.462;2023-11-21T03:51:31;8.50;99.90
79065;DHT22;68469;51.502;7.462;2023-11-21T03:53:56;8.50;99.90
79065;DHT22;68469;51.502;7.462;2023-11-21T03:56:22;8.50;99.90
79065;DHT22;68469;51.502;7.462;2023-11-21T03:58:48;8.50;99.90
79065;DHT22;68469;51.502;7.462;2023-11-21T04:01:24;8.50;99.90
79065;DHT22;68469;51.502;7.462;2023-11-21T04:03:50;8.50;99.90
79065;DHT22;68469;51.502;7.462;2023-11-21T04:06:17;8.50;99.90
79065;DHT22;68469;51.502;7.462;2023-11-21T04:08:43;8.50;99.90
79065;DHT22;68469;51.502;7.462;2023-11-21T04:11:10;8.50;99.90
79065;DHT22;68469;51.502;7.462;2023-11-21T04:13:40;8.50;99.90
79065;DHT22;68469;51.502;7.462;2023-11-21T04:16:07;8.60;99.90
79065;DHT22;68469;51.502;7.462;2023-11-21T04:18:33;8.50;99.90
79065;DHT22;68469;51.502;7.462;2023-11-21T04:20:59;8.50;99.90
79065;DHT22;68469;51.502;7.462;2023-11-21T04:23:25;8.60;99.90
79065;DHT22;68469;51.502;7.462;2023-11-21T04:25:50;8.50;99.90
79065;DHT22;68469;51.502;7.462;2023-11-21T04:28:16;8.50;99.90
79065;DHT22;68469;51.502;7.462;2023-11-21T04:30:42;8.60;99.90
79065;DHT22;68469;51.502;7.462;2023-11-21T04:33:07;8.50;99.90
79065;DHT22;68469;51.502;7.462;2023-11-21T04:35:33;8.50;99.90
79065;DHT22;68469;51.502;7.462;2023-11-21T04:37:58;8.50;99.90
79065;DHT22;68469;51.502;7.462;2023-11-21T04:40:25;8.60;99.90
79065;DHT22;68469;51.502;7.462;2023-11-21T04:42:52;8.50;99.90
79065;DHT22;68469;51.502;7.462;2023-11-21T04:45:18;8.50;99.90
79065;DHT22;68469;51.502;7.462;2023-11-21T04:47:43;8.50;99.90
79065;DHT22;68469;51.502;7.462;2023-11-21T04:50:09;8.50;99.90
79065;DHT22;68469;51.502;7.462;2023-11-21T04:52:35;8.50;99.90
79065;DHT22;68469;51.502;7.462;2023-11-21T04:55:00;8.50;99.90
79065;DHT22;68469;51.502;7.462;2023-11-21T04:57:27;8.50;99.90
79065;DHT22;68469;51.502;7.462;2023-11-21T04:59:54;8.50;99.90
79065;DHT22;68469;51.502;7.462;2023-11-21T05:02:19;8.50;99.90
79065;DHT22;68469;51.502;7.462;2023-11-21T05:04:46;8.50;99.90
79065;DHT22;68469;51.502;7.462;2023-11-21T05:07:12;8.50;99.90
79065;DHT22;68469;51.502;7.462;2023-11-21T05:09:44;8.50;99.90
79065;DHT22;68469;51.502;7.462;2023-11-21T05:12:12;8.40;99.90
79065;DHT22;68469;51.502;7.462;2023-11-21T05:14:38;8.40;99.90
79065;DHT22;68469;51.502;7.462;2023-11-21T05:17:04;8.30;99.90
79065;DHT22;68469;51.502;7.462;2023-11-21T05:19:29;8.30;99.90
79065;DHT22;68469;51.502;7.462;2023-11-21T05:21:55;8.20;99.90
79065;DHT22;68469;51.502;7.462;2023-11-21T05:24:21;8.20;99.90
79065;DHT22;68469;51.502;7.462;2023-11-21T05:26:46;8.20;99.90
79065;DHT22;68469;51.502;7.462;2023-11-21T05:29:12;8.10;99.90
79065;DHT22;68469;51.502;7.462;2023-11-21T05:31:37;8.10;99.90
79065;DHT22;68469;51.502;7.462;2023-11-21T05:34:03;8.00;99.90
79065;DHT22;68469;51.502;7.462;2023-11-21T05:36:30;8.00;99.90
79065;DHT22;68469;51.502;7.462;2023-11-21T05:38:56;7.90;99.90
79065;DHT22;68469;51.502;7.462;2023-11-21T05:41:22;8.00;99.90
79065;DHT22;68469;51.502;7.462;2023-11-21T05:43:47;7.90;99.90
79065;DHT22;68469;51.502;7.462;2023-11-21T05:46:13;8.00;99.90
79065;DHT22;68469;51.502;7.462;2023-11-21T05:48:39;8.00;99.90
79065;DHT22;68469;51.502;7.462;2023-11-21T05:51:07;8.00;99.90
79065;DHT22;68469;51.502;7.462;2023-11-21T05:53:34;8.00;99.90
79065;DHT22;68469;51.502;7.462;2023-11-21T05:55:59;8.00;99.90
79065;DHT22;68469;51.502;7.462;2023-11-21T05:58:25;8.00;99.90
79065;DHT22;68469;51.502;7.462;2023-11-21T06:00:51;8.00;99.90
79065;DHT22;68469;51.502;7.462;2023-11-21T06:03:16;8.00;99.90
79065;DHT22;68469;51.502;7.462;2023-11-21T06:05:43;8.00;99.90
79065;DHT22;68469;51.502;7.462;2023-11-21T06:08:09;8.00;99.90
79065;DHT22;68469;51.502;7.462;2023-11-21T06:10:34;8.00;99.90
79065;DHT22;68469;51.502;7.462;2023-11-21T06:13:00;8.00;99.90
79065;DHT22;68469;51.502;7.462;2023-11-21T06:15:25;8.00;99.90
79065;DHT22;68469;51.502;7.462;2023-11-21T06:17:51;8.00;99.90
79065;DHT22;68469;51.502;7.462;2023-11-21T06:20:18;8.00;99.90
79065;DHT22;68469;51.502;7.462;2023-11-21T06:22:47;8.10;99.90
79065;DHT22;68469;51.502;7.462;2023-11-21T06:25:13;8.00;99.90
79065;DHT22;68469;51.502;7.462;2023-11-21T06:27:41;8.00;99.90
79065;DHT22;68469;51.502;7.462;2023-11-21T06:30:07;8.00;99.90
79065;DHT22;68469;51.502;7.462;2023-11-21T06:32:38;8.00;99.90
79065;DHT22;68469;51.502;7.462;2023-11-21T06:35:05;8.00;99.90
79065;DHT22;68469;51.502;7.462;2023-11-21T06:37:32;8.00;99.90
79065;DHT22;68469;51.502;7.462;2023-11-21T06:39:58;7.90;99.90
79065;DHT22;68469;51.502;7.462;2023-11-21T06:42:25;7.90;99.90
79065;DHT22;68469;51.502;7.462;2023-11-21T06:44:50;7.90;99.90
79065;DHT22;68469;51.502;7.462;2023-11-21T06:47:22;7.80;99.90
79065;DHT22;68469;51.502;7.462;2023-11-21T06:49:50;7.80;99.90
79065;DHT22;68469;51.502;7.462;2023-11-21T06:52:16;7.80;99.90
79065;DHT22;68469;51.502;7.462;2023-11-21T06:54:41;7.80;99.90
79065;DHT22;68469;51.502;7.462;2023-11-21T06:57:07;7.70;99.90
79065;DHT22;68469;51.502;7.462;2023-11-21T06:59:33;7.80;99.90
79065;DHT22;68469;51.502;7.462;2023-11-21T07:01:58;7.80;99.90
79065;DHT22;68469;51.502;7.462;2023-11-21T07:04:24;7.80;99.90
79065;DHT22;68469;51.502;7.462;2023-11-21T07:06:51;7.80;99.90
79065;DHT22;68469;51.502;7.462;2023-11-21T07:09:17;7.80;99.90
79065;DHT22;68469;51.502;7.462;2023-11-21T07:11:43;7.80;99.90
79065;DHT22;68469;51.502;7.462;2023-11-21T07:14:08;7.80;99.90
79065;DHT22;68469;51.502;7.462;2023-11-21T07:16:37;7.80;99.90
79065;DHT22;68469;51.502;7.462;2023-11-21T07:19:06;7.90;99.90
79065;DHT22;68469;51.502;7.462;2023-11-21T07:21:33;7.90;99.90
79065;DHT22;68469;51.502;7.462;2023-11-21T07:24:00;8.00;99.90
79065;DHT22;68469;51.502;7.462;2023-11-21T07:26:27;8.00;99.90
79065;DHT22;68469;51.502;7.462;2023-11-21T07:28:53;8.10;99.90
79065;DHT22;68469;51.502;7.462;2023-11-21T07:31:18;8.20;99.90
79065;DHT22;68469;51.502;7.462;2023-11-21T07:33:47;8.20;99.90
79065;DHT22;68469;51.502;7.462;2023-11-21T07:36:16;8.20;99.90
79065;DHT22;68469;51.502;7.462;2023-11-21T07:38:46;8.30;99.90
79065;DHT22;68469;51.502;7.462;2023-11-21T07:41:11;8.30;99.90
79065;DHT22;68469;51.502;7.462;2023-11-21T07:43:41;8.30;99.90
79065;DHT22;68469;51.502;7.462;2023-11-21T07:46:07;8.40;99.90
79065;DHT22;68469;51.502;7.462;2023-11-21T07:48:34;8.40;99.90
79065;DHT22;68469;51.502;7.462;2023-11-21T07:51:03;8.50;99.90
79065;DHT22;68469;51.502;7.462;2023-11-21T07:53:35;8.50;99.90
79065;DHT22;68469;51.502;7.462;2023-11-21T07:56:08;8.60;99.90
79065;DHT22;68469;51.502;7.462;2023-11-21T07:58:35;8.60;99.90
79065;DHT22;68469;51.502;7.462;2023-11-21T08:01:01;8.60;99.90
79065;DHT22;68469;51.502;7.462;2023-11-21T08:03:27;8.70;99.90
79065;DHT22;68469;51.502;7.462;2023-11-21T08:05:54;8.70;99.90
79065;DHT22;68469;51.502;7.462;2023-11-21T08:08:20;8.80;99.90
79065;DHT22;68469;51.502;7.462;2023-11-21T08:10:46;8.80;99.90
79065;DHT22;68469;51.502;7.462;2023-11-21T08:13:13;8.80;99.90
79065;DHT22;68469;51.502;7.462;2023-11-21T08:15:41;8.80;99.90
79065;DHT22;68469;51.502;7.462;2023-11-21T08:18:11;8.90;99.90
79065;DHT22;68469;51.502;7.462;2023-11-21T08:20:38;8.90;99.90
79065;DHT22;68469;51.502;7.462;2023-11-21T08:23:05;8.90;99.90
79065;DHT22;68469;51.502;7.462;2023-11-21T08:25:31;8.90;99.90
79065;DHT22;68469;51.502;7.462;2023-11-21T08:27:57;8.90;99.90
79065;DHT22;68469;51.502;7.462;2023-11-21T08:30:23;9.00;99.90
79065;DHT22;68469;51.502;7.462;2023-11-21T08:32:49;9.00;99.90
79065;DHT22;68469;51.502;7.462;2023-11-21T08:35:17;9.00;99.90
79065;DHT22;68469;51.502;7.462;2023-11-21T08:37:43;9.00;99.90
79065;DHT22;68469;51.502;7.462;2023-11-21T08:40:09;9.00;99.90
79065;DHT22;68469;51.502;7.462;2023-11-21T08:42:35;9.00;99.90
79065;DHT22;68469;51.502;7.462;2023-11-21T08:45:01;9.00;99.90
79065;DHT22;68469;51.502;7.462;2023-11-21T08:47:27;9.00;99.90
79065;DHT22;68469;51.502;7.462;2023-11-21T08:49:53;9.00;99.90
79065;DHT22;68469;51.502;7.462;2023-11-21T08:52:19;9.00;99.90
79065;DHT22;68469;51.502;7.462;2023-11-21T08:54:48;9.00;99.90
79065;DHT22;68469;51.502;7.462;2023-11-21T08:57:14;9.00;99.90
79065;DHT22;68469;51.502;7.462;2023-11-21T08:59:39;9.10;99.90
79065;DHT22;68469;51.502;7.462;2023-11-21T09:02:05;9.10;99.90
79065;DHT22;68469;51.502;7.462;2023-11-21T09:04:31;9.10;99.90
79065;DHT22;68469;51.502;7.462;2023-11-21T09:06:57;9.10;99.90
79065;DHT22;68469;51.502;7.462;2023-11-21T09:09:25;9.20;99.90
79065;DHT22;68469;51.502;7.462;2023-11-21T09:11:50;9.20;99.90
79065;DHT22;68469;51.502;7.462;2023-11-21T09:14:16;9.20;99.90
79065;DHT22;68469;51.502;7.462;2023-11-21T09:16:43;9.30;99.90
79065;DHT22;68469;51.502;7.462;2023-11-21T09:19:09;9.30;99.90
79065;DHT22;68469;51.502;7.462;2023-11-21T09:21:34;9.40;99.90
79065;DHT22;68469;51.502;7.462;2023-11-21T09:24:00;9.40;99.90
79065;DHT22;68469;51.502;7.462;2023-11-21T09:26:25;9.50;99.90
79065;DHT22;68469;51.502;7.462;2023-11-21T09:28:51;9.50;99.90
79065;DHT22;68469;51.502;7.462;2023-11-21T09:31:18;9.60;99.90
79065;DHT22;68469;51.502;7.462;2023-11-21T09:33:48;9.60;99.90
79065;DHT22;68469;51.502;7.462;2023-11-21T09:36:14;9.60;99.90
79065;DHT22;68469;51.502;7.462;2023-11-21T09:38:42;9.70;99.90
79065;DHT22;68469;51.502;7.462;2023-11-21T09:42:04;9.70;99.90
79065;DHT22;68469;51.502;7.462;2023-11-21T09:44:02;9.80;99.90
79065;DHT22;68469;51.502;7.462;2023-11-21T09:46:33;9.90;99.90
79065;DHT22;68469;51.502;7.462;2023-11-21T09:49:00;9.90;99.90
79065;DHT22;68469;51.502;7.462;2023-11-21T09:51:31;10.00;99.90
79065;DHT22;68469;51.502;7.462;2023-11-21T09:53:59;10.00;99.90
79065;DHT22;68469;51.502;7.462;2023-11-21T09:56:26;10.00;99.90
79065;DHT22;68469;51.502;7.462;2023-11-21T09:58:53;10.00;99.90
79065;DHT22;68469;51.502;7.462;2023-11-21T10:01:19;10.00;99.90
79065;DHT22;68469;51.502;7.462;2023-11-21T10:03:46;10.10;99.90
79065;DHT22;68469;51.502;7.462;2023-11-21T10:06:13;10.10;99.90
79065;DHT22;68469;51.502;7.462;2023-11-21T10:08:40;10.10;99.90
79065;DHT22;68469;51.502;7.462;2023-11-21T10:11:07;10.10;99.90
79065;DHT22;68469;51.502;7.462;2023-11-21T10:13:34;10.20;99.90
79065;DHT22;68469;51.502;7.462;2023-11-21T10:16:00;10.20;99.90
79065;DHT22;68469;51.502;7.462;2023-11-21T10:18:32;10.20;99.90
79065;DHT22;68469;51.502;7.462;2023-11-21T10:21:00;10.20;99.90
79065;DHT22;68469;51.502;7.462;2023-11-21T10:23:26;10.30;99.90
79065;DHT22;68469;51.502;7.462;2023-11-21T10:25:52;10.30;99.90
79065;DHT22;68469;51.502;7.462;2023-11-21T10:28:18;10.40;99.90
79065;DHT22;68469;51.502;7.462;2023-11-21T10:30:44;10.40;99.90
79065;DHT22;68469;51.502;7.462;2023-11-21T10:33:10;10.30;99.90
79065;DHT22;68469;51.502;7.462;2023-11-21T10:35:45;10.30;99.90
79065;DHT22;68469;51.502;7.462;2023-11-21T10:38:20;10.30;99.90
79065;DHT22;68469;51.502;7.462;2023-11-21T10:40:50;10.30;99.90
79065;DHT22;68469;51.502;7.462;2023-11-21T10:43:17;10.30;99.90
79065;DHT22;68469;51.502;7.462;2023-11-21T10:45:43;10.30;99.90
79065;DHT22;68469;51.502;7.462;2023-11-21T10:48:10;10.30;99.90
79065;DHT22;68469;51.502;7.462;2023-11-21T10:50:37;10.30;99.90
79065;DHT22;68469;51.502;7.462;2023-11-21T10:53:06;10.30;99.90
79065;DHT22;68469;51.502;7.462;2023-11-21T10:55:32;10.40;99.90
79065;DHT22;68469;51.502;7.462;2023-11-21T10:58:00;10.40;99.90
79065;DHT22;68469;51.502;7.462;2023-11-21T11:00:28;10.40;99.90
79065;DHT22;68469;51.502;7.462;2023-11-21T11:02:54;10.40;99.90
79065;DHT22;68469;51.502;7.462;2023-11-21T11:05:21;10.50;99.90
79065;DHT22;68469;51.502;7.462;2023-11-21T11:07:50;10.40;99.90
79065;DHT22;68469;51.502;7.462;2023-11-21T11:10:21;10.50;99.90
79065;DHT22;68469;51.502;7.462;2023-11-21T11:12:48;10.50;99.90
79065;DHT22;68469;51.502;7.462;2023-11-21T11:15:19;10.50;99.90
79065;DHT22;68469;51.502;7.462;2023-11-21T11:17:45;10.50;99.90
79065;DHT22;68469;51.502;7.462;2023-11-21T11:20:13;10.60;99.90
79065;DHT22;68469;51.502;7.462;2023-11-21T11:28:34;10.50;99.90
79065;DHT22;68469;51.502;7.462;2023-11-21T11:34:26;10.50;99.90
79065;DHT22;68469;51.502;7.462;2023-11-21T11:42:04;10.40;99.90
79065;DHT22;68469;51.502;7.462;2023-11-21T11:47:28;10.40;99.90
79065;DHT22;68469;51.502;7.462;2023-11-21T11:50:08;10.30;99.90
79065;DHT22;68469;51.502;7.462;2023-11-21T11:52:52;10.20;99.90
79065;DHT22;68469;51.502;7.462;2023-11-21T11:55:21;10.20;99.90
79065;DHT22;68469;51.502;7.462;2023-11-21T11:57:53;10.10;99.90
79065;DHT22;68469;51.502;7.462;2023-11-21T12:00:23;10.10;99.90
79065;DHT22;68469;51.502;7.462;2023-11-21T12:03:01;10.10;99.90
79065;DHT22;68469;51.502;7.462;2023-11-21T12:05:32;10.00;99.90
79065;DHT22;68469;51.502;7.462;2023-11-21T12:08:00;10.00;99.90
79065;DHT22;68469;51.502;7.462;2023-11-21T12:10:28;10.00;99.90
79065;DHT22;68469;51.502;7.462;2023-11-21T12:12:56;10.00;99.90
79065;DHT22;68469;51.502;7.462;2023-11-21T12:15:22;9.90;99.90
79065;DHT22;68469;51.502;7.462;2023-11-21T12:17:49;9.90;99.90
79065;DHT22;68469;51.502;7.462;2023-11-21T12:20:18;10.00;99.90
79065;DHT22;68469;51.502;7.462;2023-11-21T12:25:24;10.00;99.90
79065;DHT22;68469;51.502;7.462;2023-11-21T12:27:53;10.00;99.90
79065;DHT22;68469;51.502;7.462;2023-11-21T12:30:29;10.00;99.90
79065;DHT22;68469;51.502;7.462;2023-11-21T12:32:59;10.00;99.90
79065;DHT22;68469;51.502;7.462;2023-11-21T12:35:30;10.00;99.90
79065;DHT22;68469;51.502;7.462;2023-11-21T12:37:59;10.00;99.90
79065;DHT22;68469;51.502;7.462;2023-11-21T12:40:25;10.00;99.90
79065;DHT22;68469;51.502;7.462;2023-11-21T12:42:56;10.00;99.90
79065;DHT22;68469;51.502;7.462;2023-11-21T12:45:23;10.00;99.90
79065;DHT22;68469;51.502;7.462;2023-11-21T12:48:02;10.00;99.90
79065;DHT22;68469;51.502;7.462;2023-11-21T12:50:32;10.00;99.90
79065;DHT22;68469;51.502;7.462;2023-11-21T12:53:09;9.90;99.90
79065;DHT22;68469;51.502;7.462;2023-11-21T12:55:36;9.90;99.90
79065;DHT22;68469;51.502;7.462;2023-11-21T12:58:06;9.90;99.90
79065;DHT22;68469;51.502;7.462;2023-11-21T13:00:37;9.80;99.90
79065;DHT22;68469;51.502;7.462;2023-11-21T13:03:08;9.90;99.90
79065;DHT22;68469;51.502;7.462;2023-11-21T13:05:38;9.80;99.90
79065;DHT22;68469;51.502;7.462;2023-11-21T13:08:06;9.80;99.90
79065;DHT22;68469;51.502;7.462;2023-11-21T13:10:35;9.80;99.90
79065;DHT22;68469;51.502;7.462;2023-11-21T13:13:03;9.80;99.90
79065;DHT22;68469;51.502;7.462;2023-11-21T13:15:31;9.80;99.90
79065;DHT22;68469;51.502;7.462;2023-11-21T13:17:58;9.80;99.90
79065;DHT22;68469;51.502;7.462;2023-11-21T13:20:27;9.80;99.90
79065;DHT22;68469;51.502;7.462;2023-11-21T13:22:54;9.80;99.90
79065;DHT22;68469;51.502;7.462;2023-11-21T13:25:24;9.80;99.90
79065;DHT22;68469;51.502;7.462;2023-11-21T13:27:53;9.80;99.90
79065;DHT22;68469;51.502;7.462;2023-11-21T13:30:19;9.80;99.90
79065;DHT22;68469;51.502;7.462;2023-11-21T13:32:52;9.70;99.90
79065;DHT22;68469;51.502;7.462;2023-11-21T13:35:18;9.70;99.90
79065;DHT22;68469;51.502;7.462;2023-11-21T13:37:52;9.80;99.90
79065;DHT22;68469;51.502;7.462;2023-11-21T13:40:22;9.70;99.90
79065;DHT22;68469;51.502;7.462;2023-11-21T13:42:54;9.70;99.90
79065;DHT22;68469;51.502;7.462;2023-11-21T13:45:23;9.70;99.90
79065;DHT22;68469;51.502;7.462;2023-11-21T13:47:50;9.70;99.90
79065;DHT22;68469;51.502;7.462;2023-11-21T13:50:25;9.60;99.90
79065;DHT22;68469;51.502;7.462;2023-11-21T13:53:01;9.60;99.90
79065;DHT22;68469;51.502;7.462;2023-11-21T13:55:34;9.60;99.90
79065;DHT22;68469;51.502;7.462;2023-11-21T13:58:01;9.60;99.90
79065;DHT22;68469;51.502;7.462;2023-11-21T14:00:34;9.60;99.90
79065;DHT22;68469;51.502;7.462;2023-11-21T14:03:12;9.60;99.90
79065;DHT22;68469;51.502;7.462;2023-11-21T14:05:48;9.50;99.90
79065;DHT22;68469;51.502;7.462;2023-11-21T14:08:20;9.60;99.90
79065;DHT22;68469;51.502;7.462;2023-11-21T14:10:50;9.50;99.90
79065;DHT22;68469;51.502;7.462;2023-11-21T14:13:18;9.50;99.90
79065;DHT22;68469;51.502;7.462;2023-11-21T14:15:45;9.50;99.90
79065;DHT22;68469;51.502;7.462;2023-11-21T14:18:12;9.50;99.90
79065;DHT22;68469;51.502;7.462;2023-11-21T14:20:42;9.50;99.90
79065;DHT22;68469;51.502;7.462;2023-11-21T14:23:09;9.50;99.90
79065;DHT22;68469;51.502;7.462;2023-11-21T14:25:36;9.50;99.90
79065;DHT22;68469;51.502;7.462;2023-11-21T14:28:03;9.50;99.90
79065;DHT22;68469;51.502;7.462;2023-11-21T14:30:29;9.50;99.90
79065;DHT22;68469;51.502;7.462;2023-11-21T14:32:58;9.50;99.90
79065;DHT22;68469;51.502;7.462;2023-11-21T14:35:24;9.50;99.90
79065;DHT22;68469;51.502;7.462;2023-11-21T14:37:50;9.40;99.90
79065;DHT22;68469;51.502;7.462;2023-11-21T14:40:16;9.40;99.90
79065;DHT22;68469;51.502;7.462;2023-11-21T14:42:42;9.40;99.90
79065;DHT22;68469;51.502;7.462;2023-11-21T14:45:09;9.40;99.90
79065;DHT22;68469;51.502;7.462;2023-11-21T14:47:37;9.40;99.90
79065;DHT22;68469;51.502;7.462;2023-11-21T14:50:07;9.30;99.90
79065;DHT22;68469;51.502;7.462;2023-11-21T14:52:53;9.30;99.90
79065;DHT22;68469;51.502;7.462;2023-11-21T14:55:24;9.30;99.90
79065;DHT22;68469;51.502;7.462;2023-11-21T14:58:18;9.30;99.90
79065;DHT22;68469;51.502;7.462;2023-11-21T15:00:57;9.30;99.90
79065;DHT22;68469;51.502;7.462;2023-11-21T15:03:27;9.30;99.90
79065;DHT22;68469;51.502;7.462;2023-11-21T15:05:56;9.30;99.90
79065;DHT22;68469;51.502;7.462;2023-11-21T15:08:22;9.20;99.90
79065;DHT22;68469;51.502;7.462;2023-11-21T15:10:55;9.20;99.90
79065;DHT22;68469;51.502;7.462;2023-11-21T15:13:21;9.10;99.90
79065;DHT22;68469;51.502;7.462;2023-11-21T15:15:49;9.00;99.90
79065;DHT22;68469;51.502;7.462;2023-11-21T15:18:14;9.00;99.90
79065;DHT22;68469;51.502;7.462;2023-11-21T15:20:40;9.00;99.90
79065;DHT22;68469;51.502;7.462;2023-11-21T15:23:07;8.90;99.90
79065;DHT22;68469;51.502;7.462;2023-11-21T15:25:33;8.90;99.90
79065;DHT22;68469;51.502;7.462;2023-11-21T15:28:00;8.80;99.90
79065;DHT22;68469;51.502;7.462;2023-11-21T15:30:26;8.70;99.90
79065;DHT22;68469;51.502;7.462;2023-11-21T15:32:52;8.70;99.90
79065;DHT22;68469;51.502;7.462;2023-11-21T15:35:20;8.60;99.90
79065;DHT22;68469;51.502;7.462;2023-11-21T15:37:46;8.60;99.90
79065;DHT22;68469;51.502;7.462;2023-11-21T15:40:11;8.60;99.90
79065;DHT22;68469;51.502;7.462;2023-11-21T15:42:40;8.50;99.90
79065;DHT22;68469;51.502;7.462;2023-11-21T15:45:06;8.50;99.90
79065;DHT22;68469;51.502;7.462;2023-11-21T15:47:33;8.50;99.90
79065;DHT22;68469;51.502;7.462;2023-11-21T15:49:59;8.40;99.90
79065;DHT22;68469;51.502;7.462;2023-11-21T15:52:25;8.40;99.90
79065;DHT22;68469;51.502;7.462;2023-11-21T15:54:50;8.40;99.90
79065;DHT22;68469;51.502;7.462;2023-11-21T15:57:16;8.30;99.90
79065;DHT22;68469;51.502;7.462;2023-11-21T15:59:43;8.30;99.90
79065;DHT22;68469;51.502;7.462;2023-11-21T16:02:10;8.20;99.90
79065;DHT22;68469;51.502;7.462;2023-11-21T16:04:36;8.20;99.90